sensor_id;sensor_type;location;lat;lon;timestamp;pressure;altitude;pressure_sealevel;temperature;humidity
18167;BME280;9208;42.688;23.404;2023-04-08T00:01:01;95586.13;;;7.11;94.52
18167;BME280;9208;42.688;23.404;2023-04-08T00:03:27;95588.69;;;7.14;94.01
18167;BME280;9208;42.688;23.404;2023-04-08T00:05:52;95590.88;;;7.19;93.51
18167;BME280;9208;42.688;23.404;2023-04-08T00:08:18;95584.63;;;7.19;93.94
18167;BME280;9208;42.688;23.404;2023-04-08T00:10:43;95587.06;;;7.17;93.87
18167;BME280;9208;42.688;23.404;2023-04-08T00:13:09;95582.34;;;7.17;93.64
18167;BME280;9208;42.688;23.404;2023-04-08T00:15:36;95582.53;;;7.32;94.85
18167;BME280;9208;42.688;23.404;2023-04-08T00:18:01;95572.38;;;7.32;96.80
18167;BME280;9208;42.688;23.404;2023-04-08T00:20:26;95579.97;;;7.28;98.40
18167;BME280;9208;42.688;23.404;2023-04-08T00:22:55;95573.91;;;7.33;98.60
18167;BME280;9208;42.688;23.404;2023-04-08T00:25:20;95573.31;;;7.38;98.51
18167;BME280;9208;42.688;23.404;2023-04-08T00:27:46;95587.22;;;7.31;98.83
18167;BME280;9208;42.688;23.404;2023-04-08T00:30:11;95583.44;;;7.29;98.94
18167;BME280;9208;42.688;23.404;2023-04-08T00:32:37;95572.38;;;7.23;99.22
18167;BME280;9208;42.688;23.404;2023-04-08T00:35:03;95586.59;;;7.27;99.18
18167;BME280;9208;42.688;23.404;2023-04-08T00:37:29;95574.50;;;7.10;100.00
18167;BME280;9208;42.688;23.404;2023-04-08T00:39:55;95577.44;;;6.85;100.00
18167;BME280;9208;42.688;23.404;2023-04-08T00:42:21;95586.53;;;6.91;100.00
18167;BME280;9208;42.688;23.404;2023-04-08T00:44:46;95577.63;;;6.91;100.00
18167;BME280;9208;42.688;23.404;2023-04-08T00:47:13;95587.31;;;6.92;100.00
18167;BME280;9208;42.688;23.404;2023-04-08T00:49:39;95583.66;;;6.86;100.00
18167;BME280;9208;42.688;23.404;2023-04-08T00:52:05;95576.84;;;6.90;100.00
18167;BME280;9208;42.688;23.404;2023-04-08T00:54:31;95579.72;;;6.87;100.00
18167;BME280;9208;42.688;23.404;2023-04-08T00:56:57;95584.25;;;6.81;100.00
18167;BME280;9208;42.688;23.404;2023-04-08T00:59:26;95590.16;;;6.79;100.00
18167;BME280;9208;42.688;23.404;2023-04-08T01:04:34;95587.69;;;6.72;100.00
18167;BME280;9208;42.688;23.404;2023-04-08T01:07:24;95594.81;;;6.70;100.00
18167;BME280;9208;42.688;23.404;2023-04-08T01:10:04;95588.47;;;6.73;100.00
18167;BME280;9208;42.688;23.404;2023-04-08T01:12:32;95584.22;;;6.72;100.00
18167;BME280;9208;42.688;23.404;2023-04-08T01:15:05;95591.03;;;6.76;100.00
18167;BME280;9208;42.688;23.404;2023-04-08T01:17:35;95578.91;;;6.68;100.00
18167;BME280;9208;42.688;23.404;2023-04-08T01:20:03;95591.44;;;6.66;100.00
18167;BME280;9208;42.688;23.404;2023-04-08T01:25:51;95592.66;;;6.65;100.00
18167;BME280;9208;42.688;23.404;2023-04-08T01:28:19;95592.22;;;6.66;100.00
18167;BME280;9208;42.688;23.404;2023-04-08T01:30:48;95587.22;;;6.65;100.00
18167;BME280;9208;42.688;23.404;2023-04-08T01:33:16;95584.78;;;6.67;100.00
18167;BME280;9208;42.688;23.404;2023-04-08T01:35:43;95582.06;;;6.67;100.00
18167;BME280;9208;42.688;23.404;2023-04-08T01:38:16;95578.75;;;6.63;100.00
18167;BME280;9208;42.688;23.404;2023-04-08T01:40:43;95591.50;;;6.75;100.00
18167;BME280;9208;42.688;23.404;2023-04-08T01:43:13;95589.53;;;6.75;100.00
18167;BME280;9208;42.688;23.404;2023-04-08T01:45:41;95598.31;;;6.79;100.00
18167;BME280;9208;42.688;23.404;2023-04-08T01:48:08;95596.78;;;6.78;100.00
18167;BME280;9208;42.688;23.404;2023-04-08T01:50:34;95599.50;;;6.78;100.00
18167;BME280;9208;42.688;23.404;2023-04-08T01:53:01;95590.28;;;6.76;100.00
18167;BME280;9208;42.688;23.404;2023-04-08T01:55:28;95600.91;;;6.83;100.00
18167;BME280;9208;42.688;23.404;2023-04-08T01:57:59;95597.16;;;6.89;100.00
18167;BME280;9208;42.688;23.404;2023-04-08T02:00:28;95600.88;;;6.74;100.00
18167;BME280;9208;42.688;23.404;2023-04-08T02:02:54;95602.81;;;6.73;100.00
18167;BME280;9208;42.688;23.404;2023-04-08T02:05:21;95606.28;;;6.65;100.00
18167;BME280;9208;42.688;23.404;2023-04-08T02:07:47;95612.94;;;6.64;100.00
18167;BME280;9208;42.688;23.404;2023-04-08T02:10:13;95612.50;;;6.65;100.00
18167;BME280;9208;42.688;23.404;2023-04-08T02:12:38;95616.41;;;6.64;100.00
18167;BME280;9208;42.688;23.404;2023-04-08T02:15:04;95616.75;;;6.66;100.00
18167;BME280;9208;42.688;23.404;2023-04-08T02:17:44;95629.78;;;6.71;100.00
18167;BME280;9208;42.688;23.404;2023-04-08T02:20:17;95626.91;;;6.75;100.00
18167;BME280;9208;42.688;23.404;2023-04-08T02:23:14;95620.84;;;6.71;100.00
18167;BME280;9208;42.688;23.404;2023-04-08T02:25:43;95614.50;;;6.74;100.00
18167;BME280;9208;42.688;23.404;2023-04-08T02:28:10;95628.97;;;6.62;100.00
18167;BME280;9208;42.688;23.404;2023-04-08T02:30:40;95621.56;;;6.62;100.00
18167;BME280;9208;42.688;23.404;2023-04-08T02:33:07;95622.94;;;6.67;100.00
18167;BME280;9208;42.688;23.404;2023-04-08T02:35:34;95617.03;;;6.68;100.00
18167;BME280;9208;42.688;23.404;2023-04-08T02:38:00;95613.53;;;6.59;100.00
18167;BME280;9208;42.688;23.404;2023-04-08T02:40:28;95609.94;;;6.71;100.00
18167;BME280;9208;42.688;23.404;2023-04-08T02:42:54;95611.13;;;6.61;100.00
18167;BME280;9208;42.688;23.404;2023-04-08T02:45:20;95612.75;;;6.58;100.00
18167;BME280;9208;42.688;23.404;2023-04-08T02:47:46;95618.41;;;6.64;100.00
18167;BME280;9208;42.688;23.404;2023-04-08T02:50:16;95618.06;;;6.62;100.00
18167;BME280;9208;42.688;23.404;2023-04-08T02:52:42;95610.47;;;6.57;100.00
18167;BME280;9208;42.688;23.404;2023-04-08T02:55:09;95612.31;;;6.60;100.00
18167;BME280;9208;42.688;23.404;2023-04-08T02:57:39;95618.84;;;6.62;100.00
18167;BME280;9208;42.688;23.404;2023-04-08T03:00:07;95608.56;;;6.66;100.00
18167;BME280;9208;42.688;23.404;2023-04-08T03:02:33;95612.19;;;6.63;100.00
18167;BME280;9208;42.688;23.404;2023-04-08T03:04:58;95621.56;;;6.62;100.00
18167;BME280;9208;42.688;23.404;2023-04-08T03:07:24;95622.78;;;6.61;100.00
18167;BME280;9208;42.688;23.404;2023-04-08T03:09:50;95624.59;;;6.64;100.00
18167;BME280;9208;42.688;23.404;2023-04-08T03:12:16;95617.44;;;6.58;100.00
18167;BME280;9208;42.688;23.404;2023-04-08T03:14:41;95620.06;;;6.61;100.00
18167;BME280;9208;42.688;23.404;2023-04-08T03:17:07;95615.94;;;6.57;100.00
18167;BME280;9208;42.688;23.404;2023-04-08T03:19:32;95616.97;;;6.50;100.00
18167;BME280;9208;42.688;23.404;2023-04-08T03:21:58;95623.19;;;6.51;100.00
18167;BME280;9208;42.688;23.404;2023-04-08T03:24:24;95619.69;;;6.50;100.00
18167;BME280;9208;42.688;23.404;2023-04-08T03:26:49;95615.88;;;6.48;100.00
18167;BME280;9208;42.688;23.404;2023-04-08T03:29:15;95623.19;;;6.51;100.00
18167;BME280;9208;42.688;23.404;2023-04-08T03:31:40;95618.75;;;6.44;100.00
18167;BME280;9208;42.688;23.404;2023-04-08T03:34:06;95613.91;;;6.39;100.00
18167;BME280;9208;42.688;23.404;2023-04-08T03:36:31;95625.28;;;6.47;100.00
18167;BME280;9208;42.688;23.404;2023-04-08T03:38:56;95625.41;;;6.43;100.00
18167;BME280;9208;42.688;23.404;2023-04-08T03:41:22;95625.41;;;6.43;100.00
18167;BME280;9208;42.688;23.404;2023-04-08T03:43:47;95628.13;;;6.43;100.00
18167;BME280;9208;42.688;23.404;2023-04-08T03:46:13;95627.50;;;6.39;100.00
18167;BME280;9208;42.688;23.404;2023-04-08T03:48:38;95631.44;;;6.38;100.00
18167;BME280;9208;42.688;23.404;2023-04-08T03:51:03;95625.38;;;6.34;100.00
18167;BME280;9208;42.688;23.404;2023-04-08T03:53:29;95628.19;;;6.31;100.00
18167;BME280;9208;42.688;23.404;2023-04-08T03:55:55;95625.63;;;6.27;100.00
18167;BME280;9208;42.688;23.404;2023-04-08T03:58:21;95623.47;;;6.22;100.00
18167;BME280;9208;42.688;23.404;2023-04-08T04:00:46;95622.13;;;6.27;100.00
18167;BME280;9208;42.688;23.404;2023-04-08T04:03:11;95626.06;;;6.26;100.00
18167;BME280;9208;42.688;23.404;2023-04-08T04:05:38;95620.44;;;6.20;100.00
18167;BME280;9208;42.688;23.404;2023-04-08T04:08:04;95625.13;;;6.20;100.00
18167;BME280;9208;42.688;23.404;2023-04-08T04:10:29;95615.94;;;6.26;100.00
18167;BME280;9208;42.688;23.404;2023-04-08T04:12:55;95616.25;;;6.28;100.00
18167;BME280;9208;42.688;23.404;2023-04-08T04:15:21;95614.72;;;6.27;100.00
18167;BME280;9208;42.688;23.404;2023-04-08T04:17:47;95620.16;;;6.27;100.00
18167;BME280;9208;42.688;23.404;2023-04-08T04:20:14;95623.22;;;6.29;100.00
18167;BME280;9208;42.688;23.404;2023-04-08T04:22:40;95622.91;;;6.27;100.00
18167;BME280;9208;42.688;23.404;2023-04-08T04:25:06;95635.63;;;6.30;100.00
18167;BME280;9208;42.688;23.404;2023-04-08T04:27:32;95631.69;;;6.31;100.00
18167;BME280;9208;42.688;23.404;2023-04-08T04:29:57;95637.44;;;6.33;100.00
18167;BME280;9208;42.688;23.404;2023-04-08T04:32:27;95633.41;;;6.38;100.00
18167;BME280;9208;42.688;23.404;2023-04-08T04:34:53;95637.78;;;6.35;100.00
18167;BME280;9208;42.688;23.404;2023-04-08T04:37:18;95645.59;;;6.33;100.00
18167;BME280;9208;42.688;23.404;2023-04-08T04:39:43;95640.75;;;6.28;100.00
18167;BME280;9208;42.688;23.404;2023-04-08T04:42:09;95637.13;;;6.31;100.00
18167;BME280;9208;42.688;23.404;2023-04-08T04:44:35;95640.78;;;6.37;100.00
18167;BME280;9208;42.688;23.404;2023-04-08T04:47:00;95631.44;;;6.38;100.00
18167;BME280;9208;42.688;23.404;2023-04-08T04:49:26;95631.88;;;6.37;100.00
18167;BME280;9208;42.688;23.404;2023-04-08T04:51:51;95627.38;;;6.43;100.00
18167;BME280;9208;42.688;23.404;2023-04-08T04:54:16;95634.22;;;6.47;100.00
18167;BME280;9208;42.688;23.404;2023-04-08T04:56:42;95634.38;;;6.53;100.00
18167;BME280;9208;42.688;23.404;2023-04-08T04:59:07;95637.88;;;6.53;100.00
18167;BME280;9208;42.688;23.404;2023-04-08T05:01:36;95651.47;;;6.53;100.00
18167;BME280;9208;42.688;23.404;2023-04-08T05:04:01;95643.31;;;6.53;100.00
18167;BME280;9208;42.688;23.404;2023-04-08T05:06:26;95641.06;;;6.61;100.00
18167;BME280;9208;42.688;23.404;2023-04-08T05:08:52;95643.66;;;6.64;100.00
18167;BME280;9208;42.688;23.404;2023-04-08T05:11:17;95654.56;;;6.64;100.00
18167;BME280;9208;42.688;23.404;2023-04-08T05:13:44;95644.44;;;6.65;100.00
18167;BME280;9208;42.688;23.404;2023-04-08T05:16:09;95647.78;;;6.69;100.00
18167;BME280;9208;42.688;23.404;2023-04-08T05:18:35;95641.88;;;6.70;100.00
18167;BME280;9208;42.688;23.404;2023-04-08T05:21:01;95637.06;;;6.74;100.00
18167;BME280;9208;42.688;23.404;2023-04-08T05:23:27;95640.72;;;6.80;100.00
18167;BME280;9208;42.688;23.404;2023-04-08T05:25:52;95644.31;;;6.77;100.00
18167;BME280;9208;42.688;23.404;2023-04-08T05:28:17;95633.75;;;6.79;100.00
18167;BME280;9208;42.688;23.404;2023-04-08T05:30:48;95637.66;;;6.78;100.00
18167;BME280;9208;42.688;23.404;2023-04-08T05:33:14;95640.56;;;6.84;100.00
18167;BME280;9208;42.688;23.404;2023-04-08T05:35:40;95637.41;;;6.85;100.00
18167;BME280;9208;42.688;23.404;2023-04-08T05:38:05;95646.50;;;6.91;100.00
18167;BME280;9208;42.688;23.404;2023-04-08T05:40:31;95644.53;;;6.92;100.00
18167;BME280;9208;42.688;23.404;2023-04-08T05:42:57;95648.63;;;6.96;100.00
18167;BME280;9208;42.688;23.404;2023-04-08T05:45:22;95639.22;;;6.88;100.00
18167;BME280;9208;42.688;23.404;2023-04-08T05:47:47;95655.03;;;7.02;100.00
18167;BME280;9208;42.688;23.404;2023-04-08T05:50:13;95649.13;;;7.04;100.00
18167;BME280;9208;42.688;23.404;2023-04-08T05:52:45;95645.47;;;7.07;100.00
18167;BME280;9208;42.688;23.404;2023-04-08T05:55:13;95646.25;;;7.07;100.00
18167;BME280;9208;42.688;23.404;2023-04-08T05:57:39;95643.53;;;7.07;100.00
18167;BME280;9208;42.688;23.404;2023-04-08T06:00:06;95642.34;;;7.17;100.00
18167;BME280;9208;42.688;23.404;2023-04-08T06:02:33;95643.56;;;7.25;100.00
18167;BME280;9208;42.688;23.404;2023-04-08T06:04:59;95633.28;;;7.29;100.00
18167;BME280;9208;42.688;23.404;2023-04-08T06:07:24;95639.66;;;7.35;100.00
18167;BME280;9208;42.688;23.404;2023-04-08T06:09:49;95643.78;;;7.40;100.00
18167;BME280;9208;42.688;23.404;2023-04-08T06:12:15;95643.47;;;7.47;100.00
18167;BME280;9208;42.688;23.404;2023-04-08T06:14:40;95638.47;;;7.54;100.00
18167;BME280;9208;42.688;23.404;2023-04-08T06:17:06;95625.44;;;7.67;100.00
18167;BME280;9208;42.688;23.404;2023-04-08T06:19:31;95629.09;;;7.73;100.00
18167;BME280;9208;42.688;23.404;2023-04-08T06:21:56;95631.97;;;7.79;100.00
18167;BME280;9208;42.688;23.404;2023-04-08T06:24:24;95634.25;;;7.89;100.00
18167;BME280;9208;42.688;23.404;2023-04-08T06:26:51;95641.69;;;7.98;100.00
18167;BME280;9208;42.688;23.404;2023-04-08T06:29:17;95637.28;;;8.09;100.00
18167;BME280;9208;42.688;23.404;2023-04-08T06:31:43;95634.38;;;8.13;100.00
18167;BME280;9208;42.688;23.404;2023-04-08T06:34:08;95636.22;;;8.16;100.00
18167;BME280;9208;42.688;23.404;2023-04-08T06:36:34;95641.69;;;8.25;100.00
18167;BME280;9208;42.688;23.404;2023-04-08T06:38:59;95642.72;;;8.36;100.00
18167;BME280;9208;42.688;23.404;2023-04-08T06:41:25;95631.47;;;8.43;100.00
18167;BME280;9208;42.688;23.404;2023-04-08T06:43:50;95641.47;;;8.55;100.00
18167;BME280;9208;42.688;23.404;2023-04-08T06:46:15;95633.88;;;8.59;100.00
18167;BME280;9208;42.688;23.404;2023-04-08T06:48:41;95635.09;;;8.58;100.00
18167;BME280;9208;42.688;23.404;2023-04-08T06:51:06;95646.69;;;8.77;100.00
18167;BME280;9208;42.688;23.404;2023-04-08T06:53:32;95641.97;;;8.86;99.37
18167;BME280;9208;42.688;23.404;2023-04-08T06:55:58;95643.81;;;9.13;97.14
18167;BME280;9208;42.688;23.404;2023-04-08T06:58:23;95650.44;;;9.30;95.29
18167;BME280;9208;42.688;23.404;2023-04-08T07:00:49;95640.25;;;9.30;95.70
18167;BME280;9208;42.688;23.404;2023-04-08T07:03:14;95645.53;;;9.34;96.01
18167;BME280;9208;42.688;23.404;2023-04-08T07:05:40;95645.13;;;9.50;94.57
18167;BME280;9208;42.688;23.404;2023-04-08T07:08:06;95645.44;;;9.52;95.03
18167;BME280;9208;42.688;23.404;2023-04-08T07:10:33;95643.09;;;9.59;94.62
18167;BME280;9208;42.688;23.404;2023-04-08T07:12:59;95644.16;;;9.62;94.21
18167;BME280;9208;42.688;23.404;2023-04-08T07:15:24;95645.00;;;9.68;94.16
18167;BME280;9208;42.688;23.404;2023-04-08T07:17:50;95654.25;;;9.70;94.02
18167;BME280;9208;42.688;23.404;2023-04-08T07:20:15;95644.28;;;9.67;94.95
18167;BME280;9208;42.688;23.404;2023-04-08T07:22:41;95649.16;;;9.63;95.50
18167;BME280;9208;42.688;23.404;2023-04-08T07:25:07;95650.66;;;9.64;95.61
18167;BME280;9208;42.688;23.404;2023-04-08T07:27:33;95648.63;;;9.50;97.12
18167;BME280;9208;42.688;23.404;2023-04-08T07:29:58;95655.34;;;9.49;96.92
18167;BME280;9208;42.688;23.404;2023-04-08T07:32:24;95657.72;;;9.56;96.20
18167;BME280;9208;42.688;23.404;2023-04-08T07:34:49;95658.00;;;9.58;96.02
18167;BME280;9208;42.688;23.404;2023-04-08T07:37:15;95658.41;;;9.66;95.47
18167;BME280;9208;42.688;23.404;2023-04-08T07:39:42;95661.38;;;9.77;95.11
18167;BME280;9208;42.688;23.404;2023-04-08T07:42:07;95676.03;;;9.88;93.63
18167;BME280;9208;42.688;23.404;2023-04-08T07:44:32;95662.94;;;9.92;93.88
18167;BME280;9208;42.688;23.404;2023-04-08T07:46:58;95665.84;;;9.89;94.88
18167;BME280;9208;42.688;23.404;2023-04-08T07:49:23;95670.09;;;9.90;94.66
18167;BME280;9208;42.688;23.404;2023-04-08T07:51:49;95664.94;;;9.92;94.01
18167;BME280;9208;42.688;23.404;2023-04-08T07:54:14;95668.03;;;10.08;93.14
18167;BME280;9208;42.688;23.404;2023-04-08T07:56:42;95674.81;;;10.13;93.08
18167;BME280;9208;42.688;23.404;2023-04-08T07:59:09;95679.38;;;10.16;92.68
18167;BME280;9208;42.688;23.404;2023-04-08T08:01:34;95682.22;;;10.22;92.37
18167;BME280;9208;42.688;23.404;2023-04-08T08:04:00;95675.25;;;10.21;92.71
18167;BME280;9208;42.688;23.404;2023-04-08T08:06:26;95680.34;;;10.27;91.81
18167;BME280;9208;42.688;23.404;2023-04-08T08:08:56;95684.13;;;10.30;91.61
18167;BME280;9208;42.688;23.404;2023-04-08T08:11:22;95688.28;;;10.40;91.09
18167;BME280;9208;42.688;23.404;2023-04-08T08:13:49;95690.88;;;10.44;90.71
18167;BME280;9208;42.688;23.404;2023-04-08T08:16:14;95688.03;;;10.53;90.38
18167;BME280;9208;42.688;23.404;2023-04-08T08:18:40;95692.09;;;10.57;90.29
18167;BME280;9208;42.688;23.404;2023-04-08T08:21:06;95695.03;;;10.54;90.21
18167;BME280;9208;42.688;23.404;2023-04-08T08:23:32;95698.81;;;10.56;90.35
18167;BME280;9208;42.688;23.404;2023-04-08T08:26:08;95682.84;;;10.55;90.69
18167;BME280;9208;42.688;23.404;2023-04-08T08:28:37;95685.09;;;10.56;90.65
18167;BME280;9208;42.688;23.404;2023-04-08T08:31:03;95690.22;;;10.63;90.67
18167;BME280;9208;42.688;23.404;2023-04-08T08:33:30;95678.59;;;10.54;91.52
18167;BME280;9208;42.688;23.404;2023-04-08T08:35:56;95691.94;;;10.61;91.06
18167;BME280;9208;42.688;23.404;2023-04-08T08:38:25;95691.28;;;10.66;90.63
18167;BME280;9208;42.688;23.404;2023-04-08T08:40:57;95696.09;;;10.71;90.19
18167;BME280;9208;42.688;23.404;2023-04-08T08:43:27;95703.44;;;10.79;89.90
18167;BME280;9208;42.688;23.404;2023-04-08T08:45:53;95699.28;;;10.69;90.46
18167;BME280;9208;42.688;23.404;2023-04-08T08:48:19;95699.56;;;10.86;89.69
18167;BME280;9208;42.688;23.404;2023-04-08T08:50:45;95693.06;;;10.83;90.03
18167;BME280;9208;42.688;23.404;2023-04-08T08:53:11;95698.34;;;10.87;89.56
18167;BME280;9208;42.688;23.404;2023-04-08T08:55:36;95706.00;;;10.97;89.07
18167;BME280;9208;42.688;23.404;2023-04-08T08:58:05;95696.94;;;10.91;90.63
18167;BME280;9208;42.688;23.404;2023-04-08T09:00:36;95699.00;;;10.82;90.54
18167;BME280;9208;42.688;23.404;2023-04-08T09:05:57;95691.34;;;10.86;91.17
18167;BME280;9208;42.688;23.404;2023-04-08T09:08:33;95706.75;;;10.83;90.40
18167;BME280;9208;42.688;23.404;2023-04-08T09:11:25;95703.91;;;10.78;91.16
18167;BME280;9208;42.688;23.404;2023-04-08T09:13:51;95698.53;;;10.83;91.16
18167;BME280;9208;42.688;23.404;2023-04-08T09:16:18;95702.53;;;10.82;90.32
18167;BME280;9208;42.688;23.404;2023-04-08T09:18:44;95709.78;;;10.85;89.78
18167;BME280;9208;42.688;23.404;2023-04-08T09:21:12;95708.75;;;10.83;89.94
18167;BME280;9208;42.688;23.404;2023-04-08T09:23:49;95702.31;;;10.71;90.56
18167;BME280;9208;42.688;23.404;2023-04-08T09:26:18;95694.38;;;10.59;92.45
18167;BME280;9208;42.688;23.404;2023-04-08T09:29:07;95687.00;;;10.65;92.22
18167;BME280;9208;42.688;23.404;2023-04-08T09:31:38;95696.09;;;10.71;91.53
18167;BME280;9208;42.688;23.404;2023-04-08T09:34:10;95691.25;;;10.80;91.73
18167;BME280;9208;42.688;23.404;2023-04-08T09:36:36;95695.59;;;10.87;91.19
18167;BME280;9208;42.688;23.404;2023-04-08T09:39:02;95697.97;;;10.94;90.68
18167;BME280;9208;42.688;23.404;2023-04-08T09:41:27;95696.84;;;11.00;90.55
18167;BME280;9208;42.688;23.404;2023-04-08T09:43:54;95688.41;;;11.04;89.82
18167;BME280;9208;42.688;23.404;2023-04-08T09:49:14;95681.31;;;10.97;89.58
18167;BME280;9208;42.688;23.404;2023-04-08T09:57:27;95673.94;;;11.03;89.60
18167;BME280;9208;42.688;23.404;2023-04-08T10:00:01;95680.94;;;11.04;88.50
18167;BME280;9208;42.688;23.404;2023-04-08T10:02:29;95669.50;;;11.06;89.08
18167;BME280;9208;42.688;23.404;2023-04-08T10:04:59;95689.44;;;11.21;86.74
18167;BME280;9208;42.688;23.404;2023-04-08T10:07:28;95685.75;;;11.24;85.85
18167;BME280;9208;42.688;23.404;2023-04-08T10:09:53;95661.88;;;11.30;87.44
18167;BME280;9208;42.688;23.404;2023-04-08T10:12:19;95675.97;;;11.37;86.90
18167;BME280;9208;42.688;23.404;2023-04-08T10:15:20;95660.41;;;11.49;87.67
18167;BME280;9208;42.688;23.404;2023-04-08T10:17:46;95672.75;;;11.59;85.93
18167;BME280;9208;42.688;23.404;2023-04-08T10:20:50;95666.78;;;11.75;85.18
18167;BME280;9208;42.688;23.404;2023-04-08T10:23:17;95675.91;;;11.86;84.85
18167;BME280;9208;42.688;23.404;2023-04-08T10:25:43;95683.25;;;11.95;83.31
18167;BME280;9208;42.688;23.404;2023-04-08T10:33:15;95683.06;;;12.18;82.90
18167;BME280;9208;42.688;23.404;2023-04-08T10:38:38;95669.06;;;12.16;83.49
18167;BME280;9208;42.688;23.404;2023-04-08T10:41:06;95684.38;;;12.23;81.73
18167;BME280;9208;42.688;23.404;2023-04-08T10:43:35;95688.88;;;12.26;81.46
18167;BME280;9208;42.688;23.404;2023-04-08T10:46:02;95686.19;;;12.31;81.09
18167;BME280;9208;42.688;23.404;2023-04-08T10:48:27;95684.97;;;12.32;80.93
18167;BME280;9208;42.688;23.404;2023-04-08T10:51:00;95674.09;;;12.23;81.10
18167;BME280;9208;42.688;23.404;2023-04-08T10:53:31;95680.63;;;12.26;80.41
18167;BME280;9208;42.688;23.404;2023-04-08T10:58:30;95666.31;;;12.42;81.54
18167;BME280;9208;42.688;23.404;2023-04-08T11:01:04;95655.09;;;12.45;81.84
18167;BME280;9208;42.688;23.404;2023-04-08T11:03:32;95672.38;;;12.71;79.77
18167;BME280;9208;42.688;23.404;2023-04-08T11:05:59;95671.13;;;12.72;79.50
18167;BME280;9208;42.688;23.404;2023-04-08T11:08:30;95665.94;;;12.80;79.07
18167;BME280;9208;42.688;23.404;2023-04-08T11:10:57;95651.44;;;12.79;79.22
18167;BME280;9208;42.688;23.404;2023-04-08T11:13:22;95654.41;;;12.76;79.82
18167;BME280;9208;42.688;23.404;2023-04-08T11:15:49;95653.31;;;12.93;79.93
18167;BME280;9208;42.688;23.404;2023-04-08T11:18:15;95663.16;;;13.00;78.64
18167;BME280;9208;42.688;23.404;2023-04-08T11:20:43;95681.75;;;13.10;76.34
18167;BME280;9208;42.688;23.404;2023-04-08T11:23:13;95686.56;;;13.21;74.69
18167;BME280;9208;42.688;23.404;2023-04-08T11:25:40;95693.38;;;13.25;74.31
18167;BME280;9208;42.688;23.404;2023-04-08T11:28:06;95707.91;;;13.26;72.81
18167;BME280;9208;42.688;23.404;2023-04-08T11:30:31;95696.94;;;13.31;73.68
18167;BME280;9208;42.688;23.404;2023-04-08T11:32:58;95702.56;;;13.48;73.02
18167;BME280;9208;42.688;23.404;2023-04-08T11:35:28;95692.34;;;13.54;73.06
18167;BME280;9208;42.688;23.404;2023-04-08T11:37:54;95688.88;;;13.59;73.39
18167;BME280;9208;42.688;23.404;2023-04-08T11:40:20;95699.00;;;13.78;72.08
18167;BME280;9208;42.688;23.404;2023-04-08T11:42:49;95707.75;;;13.77;71.53
18167;BME280;9208;42.688;23.404;2023-04-08T11:45:17;95697.75;;;13.79;71.77
18167;BME280;9208;42.688;23.404;2023-04-08T11:47:43;95701.31;;;13.91;71.20
18167;BME280;9208;42.688;23.404;2023-04-08T11:50:09;95700.06;;;13.92;71.25
18167;BME280;9208;42.688;23.404;2023-04-08T11:52:48;95688.59;;;13.99;71.52
18167;BME280;9208;42.688;23.404;2023-04-08T11:55:30;95728.25;;;14.12;67.96
18167;BME280;9208;42.688;23.404;2023-04-08T11:58:01;95756.09;;;14.20;66.67
18167;BME280;9208;42.688;23.404;2023-04-08T12:00:27;95736.50;;;14.07;66.55
18167;BME280;9208;42.688;23.404;2023-04-08T12:02:53;95735.25;;;14.08;67.54
18167;BME280;9208;42.688;23.404;2023-04-08T12:05:18;95718.97;;;14.10;68.09
18167;BME280;9208;42.688;23.404;2023-04-08T12:07:44;95716.16;;;14.04;67.65
18167;BME280;9208;42.688;23.404;2023-04-08T12:10:10;95717.25;;;14.18;67.17
18167;BME280;9208;42.688;23.404;2023-04-08T12:12:36;95716.25;;;14.15;67.09
18167;BME280;9208;42.688;23.404;2023-04-08T12:15:02;95717.94;;;14.07;66.76
18167;BME280;9208;42.688;23.404;2023-04-08T12:17:28;95722.44;;;14.05;66.95
18167;BME280;9208;42.688;23.404;2023-04-08T12:19:53;95722.44;;;14.05;66.77
18167;BME280;9208;42.688;23.404;2023-04-08T12:22:19;95720.22;;;14.09;67.08
18167;BME280;9208;42.688;23.404;2023-04-08T12:24:45;95713.94;;;14.03;67.02
18167;BME280;9208;42.688;23.404;2023-04-08T12:27:10;95707.66;;;14.02;67.04
18167;BME280;9208;42.688;23.404;2023-04-08T12:29:36;95698.69;;;14.13;67.27
18167;BME280;9208;42.688;23.404;2023-04-08T12:32:01;95716.09;;;14.30;66.01
18167;BME280;9208;42.688;23.404;2023-04-08T12:34:29;95723.88;;;14.37;65.41
18167;BME280;9208;42.688;23.404;2023-04-08T12:36:57;95723.13;;;14.36;64.69
18167;BME280;9208;42.688;23.404;2023-04-08T12:39:23;95727.19;;;14.46;64.41
18167;BME280;9208;42.688;23.404;2023-04-08T12:41:48;95725.19;;;14.52;64.27
18167;BME280;9208;42.688;23.404;2023-04-08T12:44:14;95715.94;;;14.55;64.95
18167;BME280;9208;42.688;23.404;2023-04-08T12:46:40;95708.16;;;14.59;66.20
18167;BME280;9208;42.688;23.404;2023-04-08T12:49:05;95682.31;;;14.57;68.02
18167;BME280;9208;42.688;23.404;2023-04-08T12:51:31;95673.28;;;14.45;68.40
18167;BME280;9208;42.688;23.404;2023-04-08T12:53:56;95649.16;;;14.35;69.69
18167;BME280;9208;42.688;23.404;2023-04-08T12:56:23;95640.38;;;14.31;70.37
18167;BME280;9208;42.688;23.404;2023-04-08T12:58:49;95639.84;;;14.27;70.41
18167;BME280;9208;42.688;23.404;2023-04-08T13:01:15;95644.59;;;14.26;70.76
18167;BME280;9208;42.688;23.404;2023-04-08T13:03:41;95633.56;;;14.26;70.88
18167;BME280;9208;42.688;23.404;2023-04-08T13:06:07;95626.56;;;14.25;71.16
18167;BME280;9208;42.688;23.404;2023-04-08T13:08:32;95620.53;;;14.21;71.50
18167;BME280;9208;42.688;23.404;2023-04-08T13:10:57;95614.22;;;14.15;71.75
18167;BME280;9208;42.688;23.404;2023-04-08T13:13:23;95608.44;;;14.08;72.10
18167;BME280;9208;42.688;23.404;2023-04-08T13:15:48;95610.91;;;14.06;71.77
18167;BME280;9208;42.688;23.404;2023-04-08T13:18:14;95606.69;;;14.10;71.22
18167;BME280;9208;42.688;23.404;2023-04-08T13:20:39;95622.00;;;14.17;70.54
18167;BME280;9208;42.688;23.404;2023-04-08T13:23:05;95628.00;;;14.15;70.22
18167;BME280;9208;42.688;23.404;2023-04-08T13:25:30;95631.25;;;14.14;70.04
18167;BME280;9208;42.688;23.404;2023-04-08T13:27:56;95626.44;;;14.03;70.63
18167;BME280;9208;42.688;23.404;2023-04-08T13:30:21;95621.94;;;14.00;70.70